Time;durP1;ratioP1;P1;durP2;ratioP2;P2;SDS_P1;SDS_P2;PMS_P1;PMS_P2;Temp;Humidity;BMP_temperature;BMP_pressure;BME280_temperature;BME280_humidity;BME280_pressure;Samples;Min_cycle;Max_cycle;Signal;HPM_P1;HPM_P2
2022/03/04 00:00:40;;;;;;;12.50;4.80;;;;;;;-0.27;91.05;101595.22;107958;1277;59532;-74
2022/03/04 00:03:07;;;;;;;10.70;4.80;;;;;;;-0.27;91.17;101596.62;107689;1277;61805;-76
2022/03/04 00:05:33;;;;;;;11.20;5.20;;;;;;;-0.27;90.94;101592.84;107882;1278;77029;-76
2022/03/04 00:08:00;;;;;;;9.10;3.70;;;;;;;-0.27;90.74;101591.94;108061;1278;59705;-74
2022/03/04 00:10:26;;;;;;;9.40;2.80;;;;;;;-0.26;90.62;101592.43;108150;1277;74148;-74
2022/03/04 00:12:54;;;;;;;11.70;4.40;;;;;;;-0.25;90.72;101595.33;108138;1277;59188;-77
2022/03/04 00:15:22;;;;;;;10.00;4.50;;;;;;;-0.24;90.88;101599.42;108046;1277;62205;-75
2022/03/04 00:17:49;;;;;;;10.90;5.20;;;;;;;-0.24;90.79;101594.02;108167;1277;75943;-77
2022/03/04 00:20:16;;;;;;;7.40;3.80;;;;;;;-0.23;90.74;101599.39;108004;1278;70879;-76
2022/03/04 00:22:43;;;;;;;9.80;5.20;;;;;;;-0.22;90.92;101601.59;108059;1278;74625;-74
2022/03/04 00:25:10;;;;;;;13.20;6.80;;;;;;;-0.21;90.58;101599.30;108023;1278;61172;-76
2022/03/04 00:27:37;;;;;;;8.90;4.70;;;;;;;-0.20;90.67;101595.38;108153;1277;60928;-76
2022/03/04 00:30:05;;;;;;;10.20;4.80;;;;;;;-0.18;90.59;101600.84;107882;1277;73803;-74
2022/03/04 00:32:32;;;;;;;10.30;4.50;;;;;;;-0.16;90.69;101604.06;108131;1277;72618;-75
2022/03/04 00:34:58;;;;;;;8.60;4.20;;;;;;;-0.15;90.79;101607.48;108043;1277;59032;-77
2022/03/04 00:37:24;;;;;;;11.50;5.90;;;;;;;-0.15;90.91;101609.58;108111;1277;59981;-77
2022/03/04 00:39:51;;;;;;;14.90;5.90;;;;;;;-0.15;90.74;101606.42;108130;1277;59400;-74
2022/03/04 00:42:17;;;;;;;13.30;6.00;;;;;;;-0.16;90.69;101602.48;108036;1277;59039;-77
2022/03/04 00:44:45;;;;;;;13.90;6.40;;;;;;;-0.18;90.80;101606.23;107864;1278;60436;-74
2022/03/04 00:47:11;;;;;;;10.20;5.80;;;;;;;-0.18;90.67;101611.27;108113;1277;74080;-76
2022/03/04 00:49:38;;;;;;;15.50;6.80;;;;;;;-0.18;90.71;101610.78;107945;1277;61185;-74
2022/03/04 00:52:05;;;;;;;17.40;6.80;;;;;;;-0.17;90.87;101611.41;108043;1278;61420;-74
2022/03/04 00:54:31;;;;;;;17.40;7.80;;;;;;;-0.16;90.72;101614.98;108140;1277;73963;-74
2022/03/04 00:56:58;;;;;;;11.20;5.60;;;;;;;-0.13;90.67;101613.60;107979;1279;72198;-74
2022/03/04 00:59:24;;;;;;;15.10;6.50;;;;;;;-0.10;90.54;101609.80;108023;1278;73312;-76
2022/03/04 01:01:52;;;;;;;11.50;5.60;;;;;;;-0.08;90.23;101608.13;108175;1277;60277;-75
2022/03/04 01:04:20;;;;;;;8.50;3.50;;;;;;;-0.05;90.08;101609.52;108023;1277;60338;-76
2022/03/04 01:06:46;;;;;;;13.30;5.90;;;;;;;-0.04;89.91;101611.38;108064;1277;74899;-74
2022/03/04 01:09:13;;;;;;;15.70;8.00;;;;;;;-0.03;89.65;101617.06;108155;1277;71278;-76
2022/03/04 01:11:40;;;;;;;15.60;7.10;;;;;;;-0.01;89.68;101620.64;108071;1277;73097;-75
2022/03/04 01:14:08;;;;;;;19.40;8.90;;;;;;;0.02;89.81;101619.27;108134;1277;60453;-74
2022/03/04 01:16:34;;;;;;;21.90;7.50;;;;;;;0.02;89.72;101617.83;107998;1278;61056;-75
2022/03/04 01:19:03;;;;;;;15.80;8.00;;;;;;;0.04;89.58;101616.55;108033;1278;73651;-76
2022/03/04 01:21:29;;;;;;;11.70;5.40;;;;;;;0.06;89.69;101617.65;108054;1277;72422;-77
2022/03/04 01:23:56;;;;;;;14.00;7.40;;;;;;;0.07;89.47;101610.13;108135;1277;59547;-74
2022/03/04 01:26:22;;;;;;;14.90;6.20;;;;;;;0.07;89.05;101604.89;108064;1279;59159;-74
2022/03/04 01:28:49;;;;;;;11.30;6.30;;;;;;;0.10;88.88;101602.30;108064;1277;59668;-76
2022/03/04 01:31:15;;;;;;;12.10;6.20;;;;;;;0.11;88.90;101598.59;108049;1278;59561;-77
2022/03/04 01:33:42;;;;;;;10.70;5.10;;;;;;;0.12;88.83;101598.69;108134;1277;70616;-75
2022/03/04 01:36:08;;;;;;;11.90;4.80;;;;;;;0.13;88.62;101596.75;107971;1277;72504;-74
2022/03/04 01:38:35;;;;;;;12.00;5.90;;;;;;;0.14;88.74;101592.01;108032;1278;59338;-74
2022/03/04 01:41:05;;;;;;;14.10;5.90;;;;;;;0.15;88.55;101587.77;108091;1277;60300;-75
2022/03/04 01:43:32;;;;;;;12.90;5.20;;;;;;;0.15;88.56;101583.04;108132;1277;74913;-76
2022/03/04 01:46:12;;;;;;;8.60;3.90;;;;;;;0.16;88.69;101581.79;108069;1277;59111;-76
2022/03/04 01:48:40;;;;;;;12.00;5.10;;;;;;;0.17;88.33;101580.14;107938;1280;73161;-74
2022/03/04 01:51:08;;;;;;;15.50;5.80;;;;;;;0.19;88.40;101581.79;108099;1277;62346;-74
2022/03/04 01:53:34;;;;;;;13.00;5.40;;;;;;;0.19;88.52;101580.90;108103;1276;61549;-77
2022/03/04 01:56:01;;;;;;;13.80;6.00;;;;;;;0.20;88.28;101582.77;108120;1277;59718;-74
2022/03/04 01:58:27;;;;;;;11.10;5.20;;;;;;;0.21;88.41;101582.86;108042;1278;59632;-74
2022/03/04 02:00:54;;;;;;;9.70;4.70;;;;;;;0.23;88.09;101585.75;108104;1276;74252;-74
2022/03/04 02:03:23;;;;;;;11.00;4.80;;;;;;;0.25;88.18;101587.69;108153;1277;61146;-76
2022/03/04 02:05:50;;;;;;;11.70;4.80;;;;;;;0.26;88.22;101581.58;108033;1278;60430;-75
2022/03/04 02:08:16;;;;;;;13.00;4.90;;;;;;;0.26;88.14;101579.65;108041;1280;59268;-74
2022/03/04 02:10:43;;;;;;;12.60;5.30;;;;;;;0.26;87.99;101576.01;107941;1277;72350;-76
2022/03/04 02:13:09;;;;;;;8.90;4.10;;;;;;;0.27;88.15;101574.39;108049;1277;59751;-75
2022/03/04 02:15:36;;;;;;;11.30;5.00;;;;;;;0.25;88.21;101569.60;108044;1277;61371;-74
2022/03/04 02:18:14;;;;;;;10.80;5.40;;;;;;;0.26;88.15;101567.33;108043;1278;59402;-75
2022/03/04 02:20:49;;;;;;;7.80;4.40;;;;;;;0.26;87.78;101562.42;108098;1277;76127;-74
2022/03/04 02:23:17;;;;;;;12.40;6.60;;;;;;;0.25;87.97;101561.30;108150;1277;71640;-75
2022/03/04 02:25:51;;;;;;;9.80;4.50;;;;;;;0.25;87.77;101568.93;108004;1278;73809;-74
2022/03/04 02:28:20;;;;;;;13.80;5.40;;;;;;;0.24;87.77;101567.96;108132;1277;61439;-76
2022/03/04 02:30:47;;;;;;;14.30;6.60;;;;;;;0.26;87.68;101576.55;108112;1277;61705;-74
2022/03/04 02:33:13;;;;;;;9.60;4.80;;;;;;;0.27;87.69;101579.09;108045;1280;74050;-77
2022/03/04 02:35:41;;;;;;;11.10;4.80;;;;;;;0.28;87.51;101572.08;108027;1278;59186;-76
2022/03/04 02:38:08;;;;;;;10.50;4.00;;;;;;;0.29;87.46;101571.29;108092;1277;72821;-74
2022/03/04 02:40:34;;;;;;;9.20;5.00;;;;;;;0.30;87.31;101567.24;108040;1277;61406;-74
2022/03/04 02:43:01;;;;;;;12.30;3.80;;;;;;;0.30;87.30;101571.23;108076;1278;60393;-76
2022/03/04 02:45:27;;;;;;;10.00;4.00;;;;;;;0.30;87.27;101572.64;108094;1277;59450;-74
2022/03/04 02:47:54;;;;;;;10.80;3.90;;;;;;;0.30;87.18;101572.11;107992;1279;71356;-76
2022/03/04 02:50:20;;;;;;;9.80;4.40;;;;;;;0.32;87.13;101572.02;108028;1278;59108;-74
2022/03/04 02:52:47;;;;;;;11.50;5.60;;;;;;;0.33;86.90;101577.64;108063;1277;60150;-75
2022/03/04 02:55:14;;;;;;;7.50;3.80;;;;;;;0.34;87.19;101584.40;108020;1277;59645;-76
2022/03/04 02:57:45;;;;;;;10.70;3.50;;;;;;;0.34;86.98;101584.55;108061;1278;75965;-74
2022/03/04 03:00:14;;;;;;;7.10;3.90;;;;;;;0.35;87.10;101582.11;108043;1277;73020;-74
2022/03/04 03:02:41;;;;;;;10.60;4.10;;;;;;;0.36;87.05;101581.88;108073;1279;73953;-74
2022/03/04 03:05:09;;;;;;;9.00;4.30;;;;;;;0.36;87.02;101579.40;107949;1278;62187;-76
2022/03/04 03:07:36;;;;;;;6.10;2.90;;;;;;;0.37;87.00;101577.77;108034;1278;60667;-74
2022/03/04 03:10:04;;;;;;;9.10;3.30;;;;;;;0.39;86.97;101575.06;108066;1278;74937;-74
2022/03/04 03:12:30;;;;;;;9.90;4.40;;;;;;;0.40;86.90;101576.77;107931;1280;72589;-76
2022/03/04 03:14:57;;;;;;;9.40;3.60;;;;;;;0.41;86.76;101576.55;108014;1278;73722;-75
2022/03/04 03:17:23;;;;;;;10.60;4.00;;;;;;;0.41;86.70;101575.67;108104;1277;59418;-75
2022/03/04 03:19:50;;;;;;;7.30;2.90;;;;;;;0.43;86.72;101574.73;108136;1277;59062;-76
2022/03/04 03:22:18;;;;;;;7.70;4.00;;;;;;;0.42;86.71;101571.44;107906;1277;59100;-74
2022/03/04 03:24:45;;;;;;;8.40;3.60;;;;;;;0.42;86.74;101571.96;108080;1277;72336;-74
2022/03/04 03:27:11;;;;;;;11.40;4.90;;;;;;;0.42;86.84;101573.73;108107;1277;72903;-74
2022/03/04 03:29:38;;;;;;;9.20;4.40;;;;;;;0.41;86.53;101578.44;108028;1278;61251;-74
2022/03/04 03:32:05;;;;;;;8.50;4.60;;;;;;;0.41;86.76;101575.30;108097;1277;60572;-74
2022/03/04 03:34:32;;;;;;;10.20;4.70;;;;;;;0.43;86.61;101576.31;108092;1277;75976;-76
2022/03/04 03:36:58;;;;;;;7.80;4.00;;;;;;;0.44;86.65;101576.55;108023;1278;71414;-75
2022/03/04 03:39:25;;;;;;;12.00;4.20;;;;;;;0.46;86.84;101578.71;108123;1277;74112;-74
2022/03/04 03:41:51;;;;;;;8.50;4.30;;;;;;;0.47;86.46;101582.48;108058;1277;59182;-75
2022/03/04 03:44:17;;;;;;;9.40;5.10;;;;;;;0.47;86.56;101574.44;108056;1278;59246;-74
2022/03/04 03:46:44;;;;;;;6.30;3.70;;;;;;;0.48;86.45;101572.13;107980;1278;59294;-74
2022/03/04 03:49:11;;;;;;;9.70;3.80;;;;;;;0.47;86.34;101569.59;108149;1277;59150;-77
2022/03/04 03:51:38;;;;;;;8.40;3.50;;;;;;;0.48;86.26;101574.55;107716;1280;71710;-74
2022/03/04 03:54:04;;;;;;;9.20;5.20;;;;;;;0.48;86.22;101573.52;108057;1278;61370;-75
2022/03/04 03:56:31;;;;;;;9.90;5.10;;;;;;;0.49;86.23;101574.16;107845;1278;59391;-77
2022/03/04 03:58:57;;;;;;;10.30;5.50;;;;;;;0.50;86.28;101577.78;108116;1277;59982;-74
2022/03/04 04:01:24;;;;;;;7.50;3.80;;;;;;;0.51;86.40;101583.11;108007;1279;59582;-74
2022/03/04 04:03:50;;;;;;;9.00;3.80;;;;;;;0.52;86.44;101579.58;107950;1278;72895;-74
2022/03/04 04:06:17;;;;;;;7.30;3.80;;;;;;;0.51;86.58;101579.60;108083;1276;59187;-75
2022/03/04 04:08:43;;;;;;;10.50;4.70;;;;;;;0.51;86.57;101581.90;108034;1279;59009;-76
2022/03/04 04:11:10;;;;;;;10.30;4.30;;;;;;;0.50;86.43;101584.36;107919;1277;58881;-76
2022/03/04 04:13:36;;;;;;;10.30;4.70;;;;;;;0.49;86.25;101584.41;108009;1278;59133;-75
2022/03/04 04:16:06;;;;;;;6.00;3.30;;;;;;;0.48;86.38;101582.21;108043;1277;59697;-76
2022/03/04 04:18:32;;;;;;;13.00;5.40;;;;;;;0.46;86.05;101581.65;108134;1277;60508;-76
2022/03/04 04:20:59;;;;;;;10.50;4.60;;;;;;;0.46;86.00;101585.49;107999;1278;60345;-73
2022/03/04 04:23:26;;;;;;;5.90;3.30;;;;;;;0.45;85.86;101594.61;108134;1277;59945;-74
2022/03/04 04:25:52;;;;;;;8.40;3.60;;;;;;;0.43;85.89;101595.42;107979;1279;59079;-73
2022/03/04 04:28:19;;;;;;;10.30;4.90;;;;;;;0.40;85.79;101597.27;108047;1279;59152;-74
2022/03/04 04:30:46;;;;;;;10.00;4.50;;;;;;;0.38;86.01;101594.09;108112;1277;59073;-76
2022/03/04 04:33:12;;;;;;;11.10;4.70;;;;;;;0.36;85.97;101598.76;108056;1278;60338;-74
2022/03/04 04:35:39;;;;;;;7.00;3.70;;;;;;;0.33;85.93;101600.45;108141;1277;59238;-73
2022/03/04 04:38:05;;;;;;;9.70;4.20;;;;;;;0.32;85.87;101605.05;108098;1278;60307;-74
2022/03/04 04:40:32;;;;;;;7.10;3.90;;;;;;;0.30;86.11;101601.14;108029;1278;59193;-74
2022/03/04 04:42:59;;;;;;;8.90;2.90;;;;;;;0.28;86.22;101594.67;108065;1279;61394;-76
2022/03/04 04:45:26;;;;;;;12.10;4.10;;;;;;;0.25;86.24;101594.30;108069;1277;60284;-76
2022/03/04 04:47:52;;;;;;;11.30;5.00;;;;;;;0.22;86.47;101593.59;108145;1277;76401;-76
2022/03/04 04:50:19;;;;;;;9.40;4.60;;;;;;;0.20;86.41;101592.70;108142;1277;70093;-76
2022/03/04 04:52:45;;;;;;;11.60;3.90;;;;;;;0.17;86.42;101591.80;108063;1278;59315;-75
2022/03/04 04:55:11;;;;;;;8.20;4.10;;;;;;;0.14;86.25;101591.46;108147;1277;59510;-74
2022/03/04 04:57:38;;;;;;;11.50;5.20;;;;;;;0.12;86.25;101590.72;108067;1278;59267;-74
2022/03/04 05:00:05;;;;;;;6.10;2.30;;;;;;;0.09;86.29;101592.41;108189;1277;59095;-76
2022/03/04 05:02:31;;;;;;;6.60;3.70;;;;;;;0.06;86.44;101592.44;108079;1280;71465;-74
2022/03/04 05:04:59;;;;;;;10.10;3.90;;;;;;;0.02;86.33;101591.80;108150;1277;74265;-76
2022/03/04 05:07:25;;;;;;;11.00;3.70;;;;;;;-0.02;86.17;101595.96;108167;1277;61342;-76
2022/03/04 05:09:52;;;;;;;12.60;5.00;;;;;;;-0.04;86.25;101594.01;107968;1279;59563;-77
2022/03/04 05:12:19;;;;;;;8.30;3.30;;;;;;;-0.07;86.34;101598.86;108209;1277;76858;-74
2022/03/04 05:14:45;;;;;;;10.80;5.10;;;;;;;-0.11;86.29;101602.20;108163;1277;59138;-74
2022/03/04 05:17:12;;;;;;;7.60;3.40;;;;;;;-0.12;86.41;101601.05;108150;1277;59319;-74
2022/03/04 05:19:38;;;;;;;9.20;5.10;;;;;;;-0.14;86.37;101595.56;108173;1277;59207;-74
2022/03/04 05:22:04;;;;;;;7.80;3.80;;;;;;;-0.16;86.56;101595.86;108061;1278;59152;-74
2022/03/04 05:24:31;;;;;;;7.60;4.40;;;;;;;-0.19;86.66;101599.00;108172;1277;59412;-75
2022/03/04 05:26:57;;;;;;;6.60;3.50;;;;;;;-0.22;86.62;101591.33;108088;1278;59617;-75
2022/03/04 05:29:24;;;;;;;13.00;4.90;;;;;;;-0.25;86.84;101589.77;108186;1277;59216;-74
2022/03/04 05:31:50;;;;;;;8.50;2.40;;;;;;;-0.29;86.61;101595.17;108002;1277;59130;-76
2022/03/04 05:34:17;;;;;;;7.00;4.50;;;;;;;-0.32;87.27;101595.52;108067;1278;59784;-76
2022/03/04 05:36:43;;;;;;;15.20;6.10;;;;;;;-0.36;87.15;101593.98;108196;1277;59585;-77
2022/03/04 05:39:10;;;;;;;7.90;4.10;;;;;;;-0.39;86.93;101594.02;108058;1279;59104;-75
2022/03/04 05:41:36;;;;;;;11.50;5.40;;;;;;;-0.44;87.12;101597.19;108049;1279;59318;-74
2022/03/04 05:44:04;;;;;;;14.40;6.40;;;;;;;-0.47;87.17;101599.12;107987;1280;59658;-76
2022/03/04 05:46:32;;;;;;;13.60;5.50;;;;;;;-0.51;87.10;101600.55;108095;1278;61048;-73
2022/03/04 05:48:58;;;;;;;14.10;5.80;;;;;;;-0.54;87.06;101600.83;108022;1278;75866;-75
2022/03/04 05:51:25;;;;;;;8.50;5.10;;;;;;;-0.57;87.07;101597.88;108195;1278;59496;-74
2022/03/04 05:53:52;;;;;;;9.90;4.50;;;;;;;-0.61;87.23;101599.67;108198;1277;72890;-76
2022/03/04 05:56:19;;;;;;;11.30;5.10;;;;;;;-0.65;87.30;101602.66;108041;1278;59101;-75
2022/03/04 05:58:45;;;;;;;14.70;6.40;;;;;;;-0.69;87.20;101604.07;108192;1277;60594;-74
2022/03/04 06:01:12;;;;;;;13.10;6.00;;;;;;;-0.70;87.38;101607.61;108147;1278;74956;-75
2022/03/04 06:03:39;;;;;;;10.80;5.30;;;;;;;-0.71;87.59;101613.55;108002;1279;71458;-76
2022/03/04 06:06:05;;;;;;;5.30;3.20;;;;;;;-0.70;87.74;101618.20;107987;1278;72933;-75
2022/03/04 06:08:32;;;;;;;4.90;2.70;;;;;;;-0.68;87.94;101622.41;108065;1278;59417;-74
2022/03/04 06:10:59;;;;;;;7.50;4.20;;;;;;;-0.65;88.40;101623.84;108162;1277;60611;-74
2022/03/04 06:13:26;;;;;;;5.60;3.30;;;;;;;-0.61;88.71;101623.83;108063;1278;59166;-74
2022/03/04 06:15:52;;;;;;;10.00;4.80;;;;;;;-0.58;88.95;101626.11;108161;1277;71491;-74
2022/03/04 06:18:19;;;;;;;10.50;4.00;;;;;;;-0.55;89.13;101627.84;108179;1277;74209;-73
2022/03/04 06:20:46;;;;;;;10.30;5.00;;;;;;;-0.53;88.93;101630.66;107995;1278;60320;-74
2022/03/04 06:23:13;;;;;;;9.50;3.90;;;;;;;-0.49;89.15;101627.88;108055;1278;60674;-73
2022/03/04 06:25:40;;;;;;;7.70;3.80;;;;;;;-0.46;89.08;101627.55;108104;1277;74884;-74
2022/03/04 06:28:07;;;;;;;7.70;3.60;;;;;;;-0.43;89.44;101626.85;108065;1277;71373;-74
2022/03/04 06:30:36;;;;;;;9.60;3.80;;;;;;;-0.40;89.35;101627.38;108016;1277;72666;-74
2022/03/04 06:35:50;;;;;;;8.10;3.30;;;;;;;-0.31;89.07;101631.63;108005;1277;61554;-74
2022/03/04 06:38:17;;;;;;;10.60;4.50;;;;;;;-0.27;89.27;101636.10;108197;1277;60682;-74
2022/03/04 06:40:46;;;;;;;8.20;3.90;;;;;;;-0.23;89.22;101641.48;107969;1277;71458;-74
2022/03/04 06:43:13;;;;;;;6.70;3.50;;;;;;;-0.19;88.92;101642.27;108080;1277;71907;-74
2022/03/04 06:45:44;;;;;;;9.20;4.20;;;;;;;-0.13;88.96;101635.36;108018;1277;61382;-73
2022/03/04 06:48:13;;;;;;;9.90;4.20;;;;;;;-0.08;88.67;101638.77;108099;1278;60464;-74
2022/03/04 06:50:40;;;;;;;5.10;2.40;;;;;;;-0.01;88.59;101641.49;108143;1277;75995;-74
2022/03/04 06:53:07;;;;;;;9.50;4.10;;;;;;;0.06;88.47;101642.72;108236;1275;71126;-74
2022/03/04 06:55:33;;;;;;;8.70;4.80;;;;;;;0.12;88.30;101644.83;108040;1277;72944;-74
2022/03/04 06:58:00;;;;;;;10.90;5.50;;;;;;;0.18;88.28;101642.19;108013;1279;59104;-74
2022/03/04 07:00:27;;;;;;;13.80;4.80;;;;;;;0.27;88.33;101649.88;107992;1280;61635;-73
2022/03/04 07:02:54;;;;;;;9.20;3.60;;;;;;;0.35;88.04;101650.45;108197;1277;75499;-73
2022/03/04 07:05:23;;;;;;;9.10;4.50;;;;;;;0.42;87.53;101654.45;108157;1277;72743;-74
2022/03/04 07:07:51;;;;;;;10.10;4.00;;;;;;;0.46;87.14;101656.82;108257;1276;71931;-74
2022/03/04 07:10:18;;;;;;;11.90;2.50;;;;;;;0.49;87.08;101657.90;108084;1279;60916;-73
2022/03/04 07:12:46;;;;;;;5.50;2.40;;;;;;;0.53;87.06;101656.78;108200;1277;61316;-73
2022/03/04 07:15:13;;;;;;;9.70;4.60;;;;;;;0.57;86.59;101657.59;108311;1277;75099;-74
2022/03/04 07:17:44;;;;;;;7.50;3.70;;;;;;;0.63;86.48;101662.30;108172;1277;72840;-74
2022/03/04 07:20:10;;;;;;;7.40;4.00;;;;;;;0.67;86.09;101672.71;108326;1277;72935;-73
2022/03/04 07:22:38;;;;;;;9.40;4.40;;;;;;;0.71;85.73;101675.63;108219;1277;61125;-73
2022/03/04 07:25:07;;;;;;;10.70;5.00;;;;;;;0.74;85.84;101675.29;108330;1277;60506;-73
2022/03/04 07:27:35;;;;;;;9.10;4.70;;;;;;;0.79;85.46;101678.83;108143;1277;75922;-72
2022/03/04 07:30:05;;;;;;;9.40;4.50;;;;;;;0.84;85.41;101679.61;108082;1278;72866;-73
2022/03/04 07:32:34;;;;;;;11.20;4.10;;;;;;;0.88;85.03;101685.46;108272;1277;73453;-72
2022/03/04 07:35:00;;;;;;;7.20;3.40;;;;;;;0.91;84.98;101687.02;108124;1277;62411;-72
2022/03/04 07:37:27;;;;;;;8.80;3.60;;;;;;;0.96;84.88;101682.04;108102;1277;59942;-73
2022/03/04 07:39:53;;;;;;;13.20;4.80;;;;;;;1.01;84.78;101691.34;107915;1278;339861;-73
2022/03/04 07:42:22;;;;;;;8.50;4.30;;;;;;;1.06;84.52;101691.92;108258;1277;59377;-73
2022/03/04 07:44:50;;;;;;;9.70;5.30;;;;;;;1.09;84.01;101693.64;108317;1276;73999;-73
2022/03/04 07:47:16;;;;;;;9.50;3.70;;;;;;;1.11;83.61;101696.14;108301;1277;62139;-73
2022/03/04 07:49:43;;;;;;;8.40;4.10;;;;;;;1.12;83.40;101698.19;108235;1277;60395;-74
2022/03/04 07:52:10;;;;;;;11.60;4.80;;;;;;;1.09;82.90;101699.39;108303;1277;74942;-73
2022/03/04 07:54:37;;;;;;;13.00;5.30;;;;;;;1.08;82.96;101698.77;108217;1277;72977;-73
2022/03/04 07:57:04;;;;;;;11.10;4.90;;;;;;;1.11;83.15;101701.23;108344;1277;73079;-74
2022/03/04 07:59:31;;;;;;;8.50;4.20;;;;;;;1.15;83.02;101699.59;108200;1277;61080;-74
2022/03/04 08:01:57;;;;;;;14.20;5.40;;;;;;;1.21;83.09;101699.90;108336;1277;60493;-73
2022/03/04 08:04:24;;;;;;;11.30;4.70;;;;;;;1.30;82.86;101705.69;108391;1276;75967;-73
2022/03/04 08:06:51;;;;;;;9.00;4.50;;;;;;;1.33;82.31;101705.13;108284;1277;71345;-73
2022/03/04 08:09:17;;;;;;;10.40;4.70;;;;;;;1.37;82.27;101706.29;108361;1276;58933;-73
2022/03/04 08:11:46;;;;;;;7.60;4.50;;;;;;;1.41;82.00;101708.33;108135;1277;59018;-73
2022/03/04 08:14:13;;;;;;;9.90;3.90;;;;;;;1.46;81.83;101702.44;108370;1277;61655;-73
2022/03/04 08:16:39;;;;;;;9.50;5.20;;;;;;;1.50;81.50;101705.71;108173;1277;74946;-73
2022/03/04 08:19:06;;;;;;;6.80;3.40;;;;;;;1.54;81.66;101709.11;108181;1277;59132;-74
2022/03/04 08:21:32;;;;;;;9.30;5.00;;;;;;;1.59;81.12;101706.40;108327;1276;58375;-73
2022/03/04 08:23:58;;;;;;;11.70;4.40;;;;;;;1.58;80.45;101704.55;108186;1277;59075;-73
2022/03/04 08:26:25;;;;;;;11.50;4.90;;;;;;;1.56;80.32;101701.51;108156;1277;59029;-73
2022/03/04 08:28:51;;;;;;;11.40;5.60;;;;;;;1.56;80.27;101707.42;108329;1277;59225;-74
2022/03/04 08:31:18;;;;;;;13.00;6.00;;;;;;;1.56;80.15;101709.89;108315;1277;59290;-73
2022/03/04 08:33:45;;;;;;;10.30;3.00;;;;;;;1.59;80.57;101707.73;108391;1277;58499;-74
2022/03/04 08:36:13;;;;;;;8.90;4.90;;;;;;;1.65;80.38;101711.98;107891;1280;62524;-73
2022/03/04 08:38:39;;;;;;;11.50;5.20;;;;;;;1.72;80.55;101711.38;108166;1277;61780;-74
2022/03/04 08:41:07;;;;;;;13.00;5.30;;;;;;;1.76;79.98;101716.34;108320;1277;75785;-74
2022/03/04 08:43:34;;;;;;;9.10;4.50;;;;;;;1.81;79.92;101712.73;108375;1277;71388;-74
2022/03/04 08:46:05;;;;;;;12.80;6.60;;;;;;;1.86;79.55;101709.14;108178;1277;72671;-73
2022/03/04 08:48:32;;;;;;;10.40;5.80;;;;;;;1.91;79.39;101714.91;108284;1277;61610;-74
2022/03/04 08:50:59;;;;;;;10.60;4.20;;;;;;;1.93;78.75;101714.98;108204;1277;60368;-73
2022/03/04 08:53:27;;;;;;;16.00;6.60;;;;;;;1.87;78.28;101725.33;108267;1277;74943;-73
2022/03/04 08:55:55;;;;;;;15.30;7.40;;;;;;;1.87;78.76;101726.33;108323;1277;72323;-73
2022/03/04 08:58:21;;;;;;;9.20;5.30;;;;;;;1.92;78.71;101723.92;108376;1277;71854;-73
2022/03/04 09:00:48;;;;;;;12.60;6.90;;;;;;;1.90;78.38;101732.07;108175;1277;58953;-73
2022/03/04 09:03:15;;;;;;;14.20;6.00;;;;;;;1.90;78.56;101736.09;108415;1277;60540;-74
2022/03/04 09:05:42;;;;;;;10.60;5.20;;;;;;;1.96;78.75;101736.22;108168;1277;75086;-73
2022/03/04 09:08:08;;;;;;;11.40;5.60;;;;;;;2.06;79.06;101732.70;108345;1277;71625;-73
2022/03/04 09:10:35;;;;;;;9.90;5.40;;;;;;;2.15;78.71;101730.72;108099;1277;74124;-73
2022/03/04 09:13:04;;;;;;;11.80;5.80;;;;;;;2.20;78.06;101729.70;108376;1277;62562;-72
2022/03/04 09:15:31;;;;;;;8.00;3.60;;;;;;;2.27;77.75;101736.45;108169;1277;60715;-73
2022/03/04 09:17:58;;;;;;;12.90;6.00;;;;;;;2.30;77.54;101736.30;107992;1280;75009;-73
2022/03/04 09:20:29;;;;;;;10.00;5.40;;;;;;;2.33;77.22;101737.30;108313;1277;72646;-73
2022/03/04 09:22:57;;;;;;;9.00;4.90;;;;;;;2.39;77.28;101742.88;108123;1277;59140;-73
2022/03/04 09:25:26;;;;;;;9.70;4.80;;;;;;;2.36;76.42;101744.75;108312;1277;62571;-73
2022/03/04 09:27:53;;;;;;;11.50;5.80;;;;;;;2.39;76.43;101748.77;108129;1279;59255;-73
2022/03/04 09:30:20;;;;;;;7.80;4.90;;;;;;;2.42;76.72;101749.80;108319;1277;73847;-73
2022/03/04 09:32:46;;;;;;;15.60;6.10;;;;;;;2.44;76.59;101749.52;108139;1280;70350;-73
2022/03/04 09:35:13;;;;;;;7.90;4.50;;;;;;;2.49;76.79;101747.30;108113;1276;74248;-74
2022/03/04 09:37:39;;;;;;;8.50;4.20;;;;;;;2.57;76.34;101749.05;108230;1277;59203;-74
2022/03/04 09:40:08;;;;;;;8.90;4.50;;;;;;;2.66;76.15;101750.73;108348;1277;58422;-74
2022/03/04 09:42:36;;;;;;;10.40;3.20;;;;;;;2.78;75.97;101747.91;108035;1277;75930;-73
2022/03/04 09:45:03;;;;;;;7.50;4.10;;;;;;;2.84;74.81;101751.18;108215;1277;72321;-74
2022/03/04 09:47:30;;;;;;;9.80;5.20;;;;;;;2.88;74.71;101749.01;107916;1277;74018;-73
2022/03/04 09:49:58;;;;;;;7.90;4.10;;;;;;;3.00;74.94;101755.77;108137;1277;61176;-74
2022/03/04 09:52:25;;;;;;;10.70;4.70;;;;;;;3.15;73.93;101757.03;108172;1277;60652;-74
2022/03/04 09:54:52;;;;;;;7.60;4.00;;;;;;;3.26;73.33;101759.31;108282;1277;75000;-73
2022/03/04 09:57:19;;;;;;;8.60;5.10;;;;;;;3.39;73.50;101760.39;108073;1277;71490;-74
2022/03/04 09:59:46;;;;;;;10.70;4.00;;;;;;;3.53;73.07;101754.73;108180;1277;73959;-74
2022/03/04 10:02:13;;;;;;;11.30;5.20;;;;;;;3.61;72.25;101759.03;108193;1277;59093;-74
2022/03/04 10:04:41;;;;;;;12.60;5.40;;;;;;;3.70;72.06;101761.98;108192;1277;60387;-74
2022/03/04 10:07:12;;;;;;;8.90;4.70;;;;;;;3.86;72.25;101756.55;108268;1277;74863;-74
2022/03/04 10:09:43;;;;;;;7.70;4.20;;;;;;;4.07;72.07;101760.67;108235;1277;71388;-74
2022/03/04 10:12:11;;;;;;;8.20;4.20;;;;;;;4.19;70.48;101759.83;108220;1277;73102;-74
2022/03/04 10:15:04;;;;;;;9.40;5.40;;;;;;;4.23;70.10;101761.63;108234;1277;60146;-74
2022/03/04 10:17:32;;;;;;;11.50;5.20;;;;;;;4.34;70.53;101766.65;108232;1277;61707;-74
2022/03/04 10:20:02;;;;;;;8.90;4.90;;;;;;;4.44;69.82;101758.22;108025;1278;76108;-74
2022/03/04 10:22:46;;;;;;;10.20;5.10;;;;;;;4.55;69.36;101757.33;108239;1277;72476;-74
2022/03/04 10:25:24;;;;;;;8.20;4.80;;;;;;;4.55;68.62;101755.89;108107;1277;73879;-74
2022/03/04 10:27:53;;;;;;;10.00;4.80;;;;;;;4.53;68.65;101754.45;108354;1277;59921;-73
2022/03/04 10:30:31;;;;;;;8.40;4.30;;;;;;;4.57;68.92;101757.20;108342;1277;58400;-74
2022/03/04 10:33:08;;;;;;;8.00;4.60;;;;;;;4.60;68.77;101756.79;108293;1277;75977;-74
2022/03/04 10:35:37;;;;;;;8.70;3.90;;;;;;;4.64;68.53;101751.89;108170;1277;72738;-74
2022/03/04 10:38:04;;;;;;;12.80;4.90;;;;;;;4.69;68.30;101753.33;108334;1277;74087;-74
2022/03/04 10:40:34;;;;;;;8.20;4.10;;;;;;;4.72;68.49;101753.61;108331;1277;59543;-74
2022/03/04 10:43:04;;;;;;;7.40;3.50;;;;;;;4.74;68.52;101750.15;108392;1277;61512;-74
2022/03/04 10:45:44;;;;;;;9.20;4.30;;;;;;;4.77;67.98;101752.20;108199;1277;75943;-74
2022/03/04 10:48:21;;;;;;;8.60;4.50;;;;;;;4.80;67.30;101753.59;108127;1277;71079;-73
2022/03/04 10:50:50;;;;;;;6.20;3.90;;;;;;;4.84;67.44;101748.33;108299;1277;72938;-73
2022/03/04 10:53:18;;;;;;;7.90;4.00;;;;;;;4.96;67.95;101755.75;108337;1277;60069;-73
2022/03/04 10:55:47;;;;;;;5.50;2.90;;;;;;;5.05;67.69;101753.19;108174;1277;60625;-73
2022/03/04 10:58:19;;;;;;;5.80;2.90;;;;;;;5.15;67.20;101754.89;108202;1277;74431;-73
2022/03/04 11:00:51;;;;;;;7.60;3.80;;;;;;;5.26;66.47;101757.69;108212;1277;71170;-74
2022/03/04 11:03:22;;;;;;;9.30;4.10;;;;;;;5.37;66.03;101757.83;108373;1277;72952;-73
2022/03/04 11:05:51;;;;;;;6.80;3.10;;;;;;;5.51;66.35;101760.63;108193;1277;59539;-73
2022/03/04 11:08:20;;;;;;;6.40;2.90;;;;;;;5.78;66.52;101761.52;108075;1279;60575;-73
2022/03/04 11:10:47;;;;;;;10.20;5.00;;;;;;;5.89;65.00;101761.88;108314;1277;74997;-73
2022/03/04 11:13:13;;;;;;;8.70;5.20;;;;;;;5.94;65.18;101761.58;108101;1277;72485;-73
2022/03/04 11:15:41;;;;;;;9.70;4.80;;;;;;;5.91;64.58;101758.77;108305;1277;59170;-73
2022/03/04 11:18:10;;;;;;;8.70;4.00;;;;;;;5.82;64.05;101754.27;108060;1277;59820;-73
2022/03/04 11:20:39;;;;;;;8.70;4.30;;;;;;;5.70;64.10;101754.45;108218;1277;60337;-73
2022/03/04 11:23:07;;;;;;;8.20;4.60;;;;;;;5.58;64.26;101753.61;108081;1277;73493;-74